• Join FlightAware (Why Join?)
  • Login
  • US Flag 
08:09PM EDT


 

Airport Tracker/Info


-or-


 

Live Flight TrackerFlight Track Log ✈ UAL1595 ✈ 12-Jul-2013 ✈ KCLE - KFLL

Flight Track Log - Related Links

Times and Time Zones

All times are in EDT time to prevent confusion due to time zone crossing. See the UAL1595 flight status page for this flight to view local times or setup timezone preferences in your user account.

Time Position Orientation Groundspeed Altitude Reporting Facility
EDT Latitude Longitude Course Direction KTS MPH feet Rate Location/Type
07:57AM 41.4200 -81.8350 50° Northeast 170 196 1,300  Level FlightAware
07:57AM 41.4240 -81.8220 68° East 170 196 1,800 2,040 Climbing FlightAware
07:58AM 41.4260 -81.7840 86° East 215 247 2,800 2,520 Climbing FlightAware
07:58AM 41.4270 -81.7480 88° East 228 262 4,300 2,940 Climbing FlightAware
07:58AM 41.4200 -81.7090 103° East 258 297 5,500 2,820 Climbing FlightAware
07:59AM 41.4100 -81.6970 138° Southeast 267 307 6,200 3,180 Climbing FlightAware
07:59AM 41.3910 -81.6890 162° South 280 322 7,000 3,000 Climbing FlightAware
07:59AM 41.3550 -81.7070 201° Southwest 303 349 8,400 3,300 Climbing FlightAware
08:00AM 41.3330 -81.7230 209° Southwest 300 345 9,600 2,460 Climbing FlightAware
08:01AM 41.2650 -81.7740 209° Southwest 354 407 11,300 2,340 Climbing FlightAware
08:01AM 41.2060 -81.8180 209° Southwest 374 430 13,200 2,940 Climbing FlightAware
08:02AM 41.1390 -81.8680 209° Southwest 383 441 15,400 2,880 Climbing FlightAware
08:03AM 41.0830 -81.9100 209° Southwest 394 453 17,000 2,520 Climbing FlightAware
08:03AM 41.0170 -81.9590 209° Southwest 409 471 18,600 2,340 Climbing FlightAware
08:04AM 40.9450 -82.0120 209° Southwest 427 491 20,200 2,220 Climbing FlightAware
08:05AM 40.8770 -82.0630 210° Southwest 436 502 21,700 2,520 Climbing FlightAware
08:05AM 40.8120 -82.1100 209° Southwest 437 503 23,400 2,400 Climbing FlightAware
08:06AM 40.7370 -82.1650 209° Southwest 444 511 24,900 1,920 Climbing FlightAware
08:07AM 40.6610 -82.2200 209° Southwest 456 525 26,100 1,620 Climbing FlightAware
08:07AM 40.5810 -82.2780 209° Southwest 468 539 27,200 1,620 Climbing FlightAware
08:08AM 40.4930 -82.3420 209° Southwest 474 545 28,500 1,500 Climbing FlightAware
08:09AM 40.4160 -82.3970 209° Southwest 481 554 29,400 1,620 Climbing FlightAware
08:09AM 40.3380 -82.4520 208° Southwest 480 552 30,700 1,680 Climbing FlightAware
08:10AM 40.2710 -82.5000 209° Southwest 481 554 31,600 1,560 Climbing FlightAware
08:11AM 40.1520 -82.5760 206° Southwest 475 547 33,400 1,260 Climbing FlightAware
08:12AM 40.0370 -82.5940 187° South 474 545 34,000 480 Climbing FlightAware
08:13AM 39.9490 -82.6010 183° South 474 545 34,100 720 Climbing FlightAware
08:13AM 39.8570 -82.6080 183° South 470 541 35,000 600 Climbing FlightAware
08:14AM 39.7700 -82.6140 183° South 466 536 35,000  Level FlightAware
08:15AM 39.6840 -82.6210 184° South 464 534 35,000  Level FlightAware
08:15AM 39.5930 -82.6270 183° South 463 533 35,000  Level FlightAware
08:16AM 39.4940 -82.6340 183° South 462 532 35,000  Level FlightAware
08:17AM 39.4090 -82.6400 183° South 461 531 35,000  Level FlightAware
08:17AM 39.3210 -82.6470 184° South 460 529 35,000  Level FlightAware
08:18AM 39.2440 -82.6520 183° South 460 529 35,000  Level FlightAware
08:19AM 39.1500 -82.6590 183° South 460 529 35,000  Level FlightAware
08:19AM 39.0740 -82.6640 183° South 459 528 35,000  Level FlightAware
08:20AM 38.9890 -82.6700 183° South 459 528 35,000  Level FlightAware
08:21AM 38.9060 -82.6760 183° South 458 527 35,000  Level FlightAware
08:21AM 38.8200 -82.6820 183° South 457 526 35,000  Level FlightAware
08:22AM 38.7360 -82.6880 183° South 455 524 35,000  Level FlightAware
08:23AM 38.6380 -82.6950 183° South 451 519 35,000  Level FlightAware
08:23AM 38.5550 -82.7010 183° South 444 511 35,000  Level FlightAware
08:24AM 38.4620 -82.7080 183° South 438 504 35,000  Level FlightAware
08:25AM 38.3980 -82.7120 183° South 436 502 35,000  Level FlightAware
08:25AM 38.3100 -82.7190 184° South 434 499 35,000  Level FlightAware
08:26AM 38.2240 -82.7240 183° South 432 497 35,000  Level FlightAware
08:27AM 38.1400 -82.7300 183° South 430 495 35,000  Level FlightAware
08:28AM 38.0580 -82.7360 183° South 429 494 35,000  Level FlightAware
08:28AM 37.9710 -82.7420 183° South 429 494 35,000  Level FlightAware
08:29AM 37.9021 -82.7470 183° South 430 495 35,000  Level FlightAware ADS-B
08:29AM 37.8417 -82.7512 183° South 430 495 35,000  Level FlightAware ADS-B
08:30AM 37.7818 -82.7553 183° South 429 494 35,000  Level FlightAware ADS-B
08:30AM 37.7220 -82.7594 183° South 427 491 35,000  Level FlightAware ADS-B
08:31AM 37.6571 -82.7706 188° South 415 478 35,000  Level FlightAware ADS-B
08:32AM 37.5967 -82.8047 204° Southwest 409 471 35,000  Level FlightAware ADS-B
08:32AM 37.5420 -82.8407 208° Southwest 405 466 35,000  Level FlightAware ADS-B
08:33AM 37.4902 -82.8749 208° Southwest 403 464 35,000  Level FlightAware ADS-B
08:33AM 37.4402 -82.9078 208° Southwest 404 465 35,000  Level FlightAware ADS-B
08:34AM 37.3874 -82.9425 208° Southwest 405 466 35,000  Level FlightAware ADS-B
08:34AM 37.3360 -82.9763 208° Southwest 404 465 35,000  Level FlightAware ADS-B
08:35AM 37.2852 -83.0095 207° Southwest 405 466 35,000  Level FlightAware ADS-B
08:35AM 37.2331 -83.0436 208° Southwest 406 467 35,000  Level FlightAware ADS-B
08:36AM 37.1817 -83.0775 208° Southwest 407 468 35,000  Level FlightAware ADS-B
08:36AM 37.1315 -83.1101 207° Southwest 407 468 35,000  Level FlightAware ADS-B
08:37AM 37.0801 -83.1432 207° Southwest 407 468 35,000  Level FlightAware ADS-B
08:37AM 37.0272 -83.1775 207° Southwest 406 467 35,000  Level FlightAware ADS-B
08:38AM 36.9771 -83.2100 207° Southwest 406 467 35,000  Level FlightAware ADS-B
08:38AM 36.9268 -83.2430 208° Southwest 408 470 35,000  Level FlightAware ADS-B
08:39AM 36.8754 -83.2768 208° Southwest 409 471 35,000  Level FlightAware ADS-B
08:39AM 36.8220 -83.3112 207° Southwest 411 473 35,000  Level FlightAware ADS-B
08:40AM 36.7706 -83.3442 207° Southwest 412 474 35,000  Level FlightAware ADS-B
08:40AM 36.7193 -83.3771 207° Southwest 413 475 35,000  Level FlightAware ADS-B
08:41AM 36.6660 -83.4112 207° Southwest 414 476 35,000  Level FlightAware ADS-B
08:41AM 36.6128 -83.4452 207° Southwest 415 478 35,000  Level FlightAware ADS-B
08:42AM 36.5610 -83.4784 207° Southwest 413 475 35,000  Level FlightAware ADS-B
08:42AM 36.5084 -83.5123 207° Southwest 413 475 35,000  Level FlightAware ADS-B
08:43AM 36.4562 -83.5456 207° Southwest 413 475 35,000  Level FlightAware ADS-B
08:43AM 36.4044 -83.5784 207° Southwest 412 474 35,000  Level FlightAware ADS-B
08:44AM 36.3528 -83.6113 207° Southwest 413 475 35,000  Level FlightAware ADS-B
08:44AM 36.3014 -83.6440 207° Southwest 413 475 35,000  Level FlightAware ADS-B
08:45AM 36.2505 -83.6764 207° Southwest 412 474 35,000  Level FlightAware ADS-B
08:45AM 36.1984 -83.7096 207° Southwest 413 475 35,000  Level FlightAware ADS-B
08:46AM 36.1471 -83.7421 207° Southwest 413 475 35,000  Level FlightAware ADS-B
08:46AM 36.0959 -83.7745 207° Southwest 414 476 35,000  Level FlightAware ADS-B
08:47AM 36.0441 -83.8072 207° Southwest 414 476 35,000  Level FlightAware ADS-B
08:47AM 35.9883 -83.8423 207° Southwest 414 476 35,000  Level FlightAware ADS-B
08:48AM 35.9340 -83.8762 207° Southwest 414 476 35,000  Level FlightAware ADS-B
08:48AM 35.9128 -83.8873 203° Southwest 416 479 35,000  Level FlightAware ADS-B
08:48AM 35.8786 -83.9006 197° South 417 480 35,000  Level FlightAware ADS-B
08:49AM 35.8215 -83.9152 192° South 419 482 35,000  Level FlightAware ADS-B
08:49AM 35.7643 -83.9291 191° South 419 482 35,000  Level FlightAware ADS-B
08:50AM 35.7054 -83.9434 191° South 419 482 35,000  Level FlightAware ADS-B
08:51AM 35.6326 -83.9612 191° South 418 481 35,000  Level FlightAware ADS-B
08:51AM 35.5755 -83.9749 191° South 418 481 35,000  Level FlightAware ADS-B
08:52AM 35.5125 -83.9900 191° South 416 479 35,000  Level FlightAware ADS-B
08:52AM 35.4518 -84.0046 191° South 415 478 35,000  Level FlightAware ADS-B
08:53AM 35.3944 -84.0186 191° South 413 475 35,000  Level FlightAware ADS-B
08:53AM 35.3367 -84.0326 191° South 412 474 35,000  Level FlightAware ADS-B
08:54AM 35.2798 -84.0463 191° South 412 474 35,000  Level FlightAware ADS-B
08:54AM 35.2098 -84.0631 191° South 411 473 35,000  Level FlightAware ADS-B
08:55AM 35.1320 -84.0820 191° South 410 472 35,000  Level FlightAware
08:55AM 35.1164 -84.0855 190° South 411 473 35,000  Level FlightAware ADS-B
08:56AM 35.0591 -84.0990 191° South 412 474 35,000  Level FlightAware ADS-B
08:56AM 35.0028 -84.1125 191° South 412 474 35,000  Level FlightAware ADS-B
08:57AM 34.8940 -84.1385 191° South 414 476 35,000  Level FlightAware ADS-B
08:58AM 34.8361 -84.1524 191° South 416 479 35,000  Level FlightAware ADS-B
08:58AM 34.7628 -84.1697 191° South 417 480 35,000  Level FlightAware ADS-B
08:59AM 34.6760 -84.1900 191° South 419 482 35,000  Level FlightAware
09:00AM 34.6000 -84.2083 191° South 421 484 35,000  Level FlightAware ADS-B
09:00AM 34.5412 -84.2221 191° South 423 487 35,000  Level FlightAware ADS-B
09:01AM 34.4745 -84.2378 191° South 425 489 35,000  Level FlightAware ADS-B
09:02AM 34.3600 -84.2650 191° South 425 489 35,000  Level FlightAware
09:03AM 34.2830 -84.2830 191° South 421 484 35,000  Level FlightAware
09:03AM 34.1980 -84.3030 191° South 419 482 35,000  Level FlightAware
09:04AM 34.1230 -84.3200 191° South 419 482 35,000  Level FlightAware
09:05AM 34.0390 -84.3400 191° South 420 483 35,000  Level FlightAware
09:05AM 33.9701 -84.3562 191° South 421 484 35,000  Level FlightAware ADS-B
09:06AM 33.9113 -84.3697 191° South 422 486 35,000  Level FlightAware ADS-B
09:06AM 33.8464 -84.3848 191° South 421 484 35,000  Level FlightAware ADS-B
09:07AM 33.7813 -84.3998 191° South 420 483 35,000  Level FlightAware ADS-B
09:08AM 33.7090 -84.4164 191° South 420 483 35,000  Level FlightAware ADS-B
09:08AM 33.6480 -84.4284 189° South 420 483 35,000  Level FlightAware ADS-B
09:09AM 33.5750 -84.4130 170° South 424 488 35,000  Level FlightAware
09:09AM 33.5197 -84.3897 161° South 431 496 35,000  Level FlightAware ADS-B
09:10AM 33.4150 -84.3460 161° South 431 496 35,000  Level FlightAware
09:11AM 33.2940 -84.2950 161° South 429 494 35,000  Level FlightAware
09:12AM 33.2180 -84.2640 161° South 428 493 35,000  Level FlightAware
09:13AM 33.1430 -84.2320 160° South 428 493 35,000  Level FlightAware
09:13AM 33.0730 -84.2030 161° South 427 491 35,000  Level FlightAware
09:14AM 32.9890 -84.1690 161° South 426 490 35,000  Level FlightAware
09:15AM 32.9240 -84.1420 161° South 426 490 35,000  Level FlightAware
09:15AM 32.8450 -84.1090 161° South 426 490 35,000  Level FlightAware
09:16AM 32.7710 -84.0790 161° South 425 489 35,000  Level FlightAware
09:17AM 32.7000 -84.0500 161° South 426 490 35,000  Level FlightAware
09:17AM 32.6130 -84.0140 161° South 427 491 35,000  Level FlightAware
09:18AM 32.5430 -83.9850 161° South 429 494 35,000  Level FlightAware
09:19AM 32.4560 -83.9500 161° South 429 494 35,000  Level FlightAware
09:19AM 32.3860 -83.9210 161° South 427 491 35,000  Level FlightAware
09:20AM 32.2920 -83.8830 161° South 424 488 35,000  Level FlightAware
09:21AM 32.1950 -83.8420 160° South 424 488 35,000  Level FlightAware
09:22AM 32.1360 -83.8160 160° South 424 488 35,000  Level FlightAware
09:23AM 32.0610 -83.7840 160° South 424 488 35,000  Level FlightAware
09:23AM 32.0030 -83.7590 160° South 424 488 35,000  Level FlightAware
09:24AM 31.9460 -83.7350 160° South 424 488 35,000  Level FlightAware
09:25AM 31.8740 -83.7040 160° South 424 488 35,000  Level FlightAware
09:25AM 31.7990 -83.6720 160° South 424 488 35,000  Level FlightAware
09:26AM 31.7410 -83.6470 160° South 424 488 35,000  Level FlightAware
09:27AM 31.6470 -83.6070 160° South 424 488 35,000  Level FlightAware
09:28AM 31.5890 -83.5820 160° South 424 488 35,000  Level FlightAware
09:28AM 31.5140 -83.5500 160° South 424 488 35,000  Level FlightAware
09:29AM 31.4570 -83.5260 160° South 424 488 35,000  Level FlightAware
09:30AM 31.4010 -83.5020 160° South 424 488 35,000  Level FlightAware
09:30AM 31.3400 -83.4760 160° South 424 488 35,000 1,680 Level FlightAware
09:31AM 31.0903 -83.4019 160° South 444 511 37,000 1,320 Climbing Jacksonville Center
09:32AM 30.9778 -83.3578 161° South 438 504 37,000  Level Jacksonville Center
09:33AM 30.8631 -83.3089 160° South 438 504 37,000  Level Jacksonville Center
09:34AM 30.7628 -83.2722 163° South 437 503 37,000  Level Jacksonville Center
09:35AM 30.6525 -83.2136 155° Southeast 437 503 37,000  Level Jacksonville Center
09:36AM 30.5397 -83.1578 157° South 437 503 37,000  Level Jacksonville Center
09:37AM 30.4272 -83.1022 157° South 437 503 37,000  Level Jacksonville Center
09:38AM 30.3122 -83.0442 156° South 437 503 37,000  Level Jacksonville Center
09:44AM 29.6370 -82.7110 156° South 37,000  Level FlightAware
09:44AM 29.5650 -82.6750 156° South 435 501 37,000  Level FlightAware
09:45AM 29.4910 -82.6450 161° South 435 501 37,000  Level FlightAware
09:46AM 29.4340 -82.6160 156° South 435 501 37,000  Level FlightAware
09:46AM 29.3670 -82.6660 213° Southwest 435 501 37,000  Level FlightAware
09:47AM 29.2840 -82.6790 188° South 443 510 37,000  Level FlightAware
09:47AM 29.1950 -82.6980 191° South 442 509 37,000  Level FlightAware
09:48AM 29.1160 -82.7160 191° South 442 509 37,000  Level FlightAware
09:49AM 29.0340 -82.7340 191° South 443 510 37,000  Level FlightAware
09:49AM 28.9420 -82.7550 191° South 444 511 37,000  Level FlightAware
09:50AM 28.8750 -82.7700 191° South 444 511 37,000  Level FlightAware
09:51AM 28.7910 -82.7890 191° South 445 512 37,000  Level FlightAware
09:51AM 28.7410 -82.8010 192° South 445 512 37,000  Level FlightAware
09:52AM 28.6590 -82.8140 188° South 437 503 37,000  Level FlightAware
09:52AM 28.5670 -82.8330 190° South 438 504 37,000  Level FlightAware
09:53AM 28.4970 -82.8470 190° South 444 511 37,000 180 Level FlightAware
09:54AM 28.4030 -82.8670 191° South 458 527 37,300 540 Climbing FlightAware
09:54AM 28.3190 -82.8850 191° South 455 524 37,800 840 Climbing FlightAware
09:55AM 28.2240 -82.9050 191° South 455 524 38,500 840 Climbing FlightAware
09:56AM 28.1620 -82.9190 191° South 457 526 38,900 360 Climbing FlightAware
09:56AM 28.0660 -82.9400 191° South 460 529 39,000 60 Climbing FlightAware
09:57AM 27.9800 -82.9620 193° South 461 531 39,000  Level FlightAware
09:58AM 27.8950 -82.9840 193° South 461 531 39,000 -120 Level FlightAware
09:59AM 27.7780 -82.9810 179° South 463 533 38,900 -540 Descending FlightAware
09:59AM 27.6980 -82.9630 169° South 458 527 38,200 -1,020 Descending FlightAware
10:00AM 27.5710 -82.9290 167° South 446 513 37,200 -960 Descending FlightAware
10:01AM 27.5130 -82.9020 158° South 449 517 36,800 -960 Descending FlightAware
10:02AM 27.4310 -82.8480 150° Southeast 448 516 36,000 -1,080 Descending FlightAware
10:02AM 27.3630 -82.7950 145° Southeast 438 504 35,300 -780 Descending FlightAware
10:03AM 27.3010 -82.7360 140° Southeast 445 512 35,000 -300 Descending FlightAware
10:04AM 27.2260 -82.6750 144° Southeast 438 504 34,900 -540 Descending FlightAware
10:04AM 27.1610 -82.6220 144° Southeast 443 510 34,300 -780 Descending FlightAware
10:06AM 27.0360 -82.5170 143° Southeast 448 516 33,400 -1,020 Descending FlightAware
10:06AM 26.9750 -82.4260 127° Southeast 32,300 -1,260 Descending FlightAware
10:07AM 26.9250 -82.3430 124° Southeast 460 529 31,600 -1,020 Descending FlightAware
10:08AM 26.8840 -82.2750 124° Southeast 442 509 31,000 -1,020 Descending FlightAware
10:08AM 26.8420 -82.2070 125° Southeast 443 510 30,400 -1,080 Descending FlightAware
10:09AM 26.7880 -82.1170 124° Southeast 439 505 29,600 -1,080 Descending FlightAware
10:10AM 26.7380 -82.0350 124° Southeast 436 502 28,800 -1,080 Descending FlightAware
10:10AM 26.6910 -81.9600 125° Southeast 432 497 28,100 -1,620 Descending FlightAware
10:11AM 26.6410 -81.8800 125° Southeast 421 484 26,500 -2,280 Descending FlightAware
10:12AM 26.5960 -81.8080 125° Southeast 414 476 24,900 -2,340 Descending FlightAware
10:12AM 26.5560 -81.7450 125° Southeast 406 467 23,600 -2,160 Descending FlightAware
10:13AM 26.5140 -81.6770 125° Southeast 397 457 22,200 -2,160 Descending FlightAware
10:14AM 26.4720 -81.6090 125° Southeast 389 448 20,700 -2,100 Descending FlightAware
10:14AM 26.4320 -81.5470 126° Southeast 380 437 19,400 -2,040 Descending FlightAware
10:15AM 26.3760 -81.4580 125° Southeast 368 423 17,500 -2,100 Descending FlightAware
10:16AM 26.3430 -81.4060 125° Southeast 364 419 16,300 -2,100 Descending FlightAware
10:17AM 26.2960 -81.3270 124° Southeast 353 406 14,600 -2,040 Descending FlightAware
10:17AM 26.2680 -81.2720 120° Southeast 359 413 13,400 -2,040 Descending FlightAware
10:18AM 26.2290 -81.2000 121° Southeast 336 387 11,800 -2,040 Descending FlightAware
10:19AM 26.1950 -81.1340 120° Southeast 328 377 10,400 -1,380 Descending FlightAware
10:20AM 26.1700 -81.0870 121° Southeast 305 351 10,000 -900 Descending FlightAware
10:20AM 26.1500 -81.0500 121° Southeast 289 333 9,500 -1,380 Descending FlightAware
10:20AM 26.1310 -81.0160 122° Southeast 289 333 8,800 -1,620 Descending FlightAware
10:21AM 26.1130 -80.9840 122° Southeast 288 331 8,100 -1,500 Descending FlightAware
10:21AM 26.1050 -80.9620 112° Southeast 287 330 7,800 -1,320 Descending FlightAware
10:22AM 26.1020 -80.9290 96° East 283 326 7,200 -1,500 Descending FlightAware
10:22AM 26.0990 -80.8930 95° East 279 321 6,600 -1,380 Descending FlightAware
10:22AM 26.0970 -80.8500 93° East 278 320 6,000 -720 Descending FlightAware
10:23AM 26.0960 -80.8200 92° East 278 320 6,000  Level FlightAware
10:24AM 26.1090 -80.7100 82° East 272 313 6,000  Level FlightAware
10:25AM 26.1170 -80.6320 83° East 267 307 6,000 -300 Level FlightAware
10:26AM 26.1210 -80.5950 83° East 268 308 5,600 -1,020 Descending FlightAware
10:26AM 26.1260 -80.5530 82° East 267 307 5,100 -660 Descending FlightAware
10:26AM 26.1290 -80.5190 84° East 264 304 5,000 -480 Descending FlightAware
10:27AM 26.1320 -80.4990 81° East 262 302 4,800 -660 Descending FlightAware
10:27AM 26.1360 -80.4590 84° East 246 283 4,500 -660 Descending FlightAware
10:28AM 26.1390 -80.4280 84° East 233 268 4,200 -720 Descending FlightAware
10:28AM 26.1420 -80.4000 83° East 228 262 3,900 -960 Descending FlightAware
10:28AM 26.1440 -80.3760 85° East 221 254 3,500 -1,080 Descending FlightAware
10:29AM 26.1330 -80.3380 108° East 211 243 2,900 -720 Descending FlightAware
10:29AM 26.1280 -80.3310 129° Southeast 211 243 3,000 180 Climbing FlightAware
10:29AM 26.1110 -80.3200 150° Southeast 198 228 3,000 -180 Level FlightAware
10:30AM 26.0900 -80.3080 153° Southeast 195 224 2,900 -600 Descending FlightAware
10:30AM 26.0770 -80.2900 129° Southeast 191 220 2,500 -1,260 Descending FlightAware
10:31AM 26.0780 -80.2610 88° East 183 211 1,800 -1,380 Descending FlightAware
10:31AM 26.0770 -80.2320 92° East 177 204 1,100 -1,200 Descending FlightAware
10:32AM 26.0770 -80.2050 90° East 171 197 600 -960 Descending FlightAware
10:32AM 26.0770 -80.1850 90° East 169 194 300 -840 Descending FlightAware